createdAt,value
2018-01-06T00:00:43.835Z,97.74
2018-01-06T00:01:43.825Z,97.74
2018-01-06T00:02:43.806Z,97.55
2018-01-06T00:03:43.783Z,97.83
2018-01-06T00:04:43.755Z,97.55
2018-01-06T00:05:43.736Z,97.83
2018-01-06T00:06:43.719Z,97.55
2018-01-06T00:07:43.698Z,97.55
2018-01-06T00:08:43.674Z,98.11
2018-01-06T00:09:43.656Z,97.64
2018-01-06T00:10:43.634Z,97.74
2018-01-06T00:11:43.611Z,97.64
2018-01-06T00:12:43.596Z,97.74
2018-01-06T00:13:43.570Z,97.55
2018-01-06T00:14:43.556Z,97.64
2018-01-06T00:15:43.530Z,97.83
2018-01-06T00:16:43.510Z,98.21
2018-01-06T00:17:43.490Z,97.74
2018-01-06T00:18:43.470Z,97.64
2018-01-06T00:19:43.452Z,97.55
2018-01-06T00:20:43.432Z,97.55
2018-01-06T00:21:43.409Z,97.74
2018-01-06T00:22:43.390Z,97.45
2018-01-06T00:23:43.369Z,97.64
2018-01-06T00:24:43.346Z,97.92
2018-01-06T00:25:43.329Z,97.64
2018-01-06T00:26:43.309Z,98.11
2018-01-06T00:27:43.291Z,98.02
2018-01-06T00:28:43.267Z,98.11
2018-01-06T00:29:43.251Z,98.30
2018-01-06T00:30:43.226Z,97.83
2018-01-06T00:31:43.212Z,98.40
2018-01-06T00:32:43.192Z,98.40
2018-01-06T00:33:43.182Z,98.21
2018-01-06T00:34:43.147Z,98.68
2018-01-06T00:35:43.120Z,98.40
2018-01-06T00:36:43.105Z,98.40
2018-01-06T00:37:43.084Z,97.83
2018-01-06T00:38:43.062Z,98.21
2018-01-06T00:39:43.049Z,98.21
2018-01-06T00:40:43.025Z,98.97
2018-01-06T00:41:43.002Z,98.78
2018-01-06T00:42:42.981Z,98.02
2018-01-06T00:43:42.964Z,98.40
2018-01-06T00:44:42.944Z,98.21
2018-01-06T00:45:42.917Z,98.40
2018-01-06T00:46:42.898Z,98.02
2018-01-06T00:47:42.878Z,98.21
2018-01-06T00:48:42.857Z,98.68
2018-01-06T00:49:42.842Z,98.40
2018-01-06T00:50:42.815Z,98.40
2018-01-06T00:51:42.790Z,98.40
2018-01-06T00:52:42.773Z,98.40
2018-01-06T00:53:42.752Z,98.30
2018-01-06T00:54:42.734Z,98.87
2018-01-06T00:55:42.711Z,99.06
2018-01-06T00:56:42.691Z,98.87
2018-01-06T00:57:42.675Z,99.16
2018-01-06T00:58:42.653Z,98.21
2018-01-06T00:59:42.636Z,98.87
2018-01-06T01:00:42.609Z,98.78
2018-01-06T01:01:42.592Z,98.97
2018-01-06T01:02:42.568Z,98.68
2018-01-06T01:03:42.546Z,98.68
2018-01-06T01:04:42.525Z,98.82
2018-01-06T01:05:42.506Z,98.59
2018-01-06T01:06:42.489Z,98.82
2018-01-06T01:07:42.468Z,98.68
2018-01-06T01:08:42.453Z,98.78
2018-01-06T01:09:42.425Z,98.59
2018-01-06T01:10:42.402Z,98.73
2018-01-06T01:11:42.384Z,98.87
2018-01-06T01:12:42.364Z,98.87
2018-01-06T01:13:42.340Z,98.82
2018-01-06T01:14:42.320Z,99.16
2018-01-06T01:15:42.299Z,98.82
2018-01-06T01:16:42.285Z,98.44
2018-01-06T01:17:42.260Z,98.82
2018-01-06T01:18:42.242Z,99.30
2018-01-06T01:19:42.223Z,99.30
2018-01-06T01:20:42.202Z,99.44
2018-01-06T01:21:42.175Z,99.30
2018-01-06T01:22:42.156Z,99.20
2018-01-06T01:23:42.142Z,99.01
2018-01-06T01:24:42.115Z,99.39
2018-01-06T01:25:42.103Z,99.11
2018-01-06T01:26:42.074Z,99.20
2018-01-06T01:27:42.052Z,99.39
2018-01-06T01:28:42.040Z,99.39
2018-01-06T01:29:42.014Z,99.11
2018-01-06T01:30:41.996Z,99.39
2018-01-06T01:31:41.988Z,99.20
2018-01-06T01:32:41.954Z,99.39
2018-01-06T01:33:41.935Z,99.39
2018-01-06T01:34:41.921Z,99.11
2018-01-06T01:35:41.888Z,99.58
2018-01-06T01:36:41.871Z,99.99
2018-01-06T01:37:41.848Z,99.77
2018-01-06T01:38:41.830Z,99.58
2018-01-06T01:39:41.807Z,99.77
2018-01-06T01:40:41.787Z,99.39
2018-01-06T01:41:41.771Z,99.77
2018-01-06T01:42:41.747Z,99.58
2018-01-06T01:43:41.730Z,99.99
2018-01-06T01:44:41.706Z,99.49
2018-01-06T01:45:41.687Z,99.58
2018-01-06T01:46:41.664Z,99.01
2018-01-06T01:47:41.645Z,99.77
2018-01-06T01:48:41.626Z,99.58
2018-01-06T01:49:41.601Z,99.99
2018-01-06T01:50:41.581Z,99.99
2018-01-06T01:51:41.561Z,99.58
2018-01-06T01:52:41.542Z,99.49
2018-01-06T01:53:41.521Z,99.77
2018-01-06T01:54:41.501Z,99.99
2018-01-06T01:55:41.479Z,99.96
2018-01-06T01:56:41.460Z,99.39
2018-01-06T01:57:41.441Z,99.96
2018-01-06T01:58:41.420Z,99.99
2018-01-06T01:59:41.415Z,99.99
2018-01-06T02:00:41.378Z,99.99
2018-01-06T02:01:41.356Z,99.39
2018-01-06T02:02:41.340Z,99.68
2018-01-06T02:03:41.316Z,99.49
2018-01-06T02:04:41.304Z,99.58
2018-01-06T02:05:41.281Z,99.68
2018-01-06T02:06:41.256Z,99.99
2018-01-06T02:07:41.230Z,99.30
2018-01-06T02:08:41.210Z,99.96
2018-01-06T02:09:41.198Z,99.96
2018-01-06T02:10:41.171Z,99.30
2018-01-06T02:11:41.150Z,99.68
2018-01-06T02:12:41.131Z,99.58
2018-01-06T02:13:41.110Z,99.20
2018-01-06T02:14:41.094Z,99.99
2018-01-06T02:15:41.067Z,99.99
2018-01-06T02:16:41.050Z,99.99
2018-01-06T02:17:41.034Z,99.96
2018-01-06T02:18:41.007Z,99.77
2018-01-06T02:19:40.988Z,99.77
2018-01-06T02:20:40.966Z,99.01
2018-01-06T02:21:40.945Z,99.99
2018-01-06T02:22:40.924Z,99.30
2018-01-06T02:23:40.905Z,99.87
2018-01-06T02:24:40.889Z,99.49
2018-01-06T02:25:40.865Z,99.77
2018-01-06T02:26:40.848Z,99.99
2018-01-06T02:27:40.827Z,99.77
2018-01-06T02:28:40.810Z,99.77
2018-01-06T02:29:40.786Z,99.68
2018-01-06T02:30:40.762Z,99.68
2018-01-06T02:31:40.748Z,99.87
2018-01-06T02:32:40.722Z,99.87
2018-01-06T02:33:40.701Z,99.96
2018-01-06T02:34:40.680Z,99.87
2018-01-06T02:35:40.659Z,99.77
2018-01-06T02:36:40.641Z,99.68
2018-01-06T02:37:40.620Z,99.96
2018-01-06T02:38:40.603Z,99.39
2018-01-06T02:39:40.582Z,99.68
2018-01-06T02:40:40.562Z,99.87
2018-01-06T02:41:40.543Z,99.96
2018-01-06T02:42:40.517Z,99.99
2018-01-06T02:43:40.502Z,99.99
2018-01-06T02:44:40.485Z,99.96
2018-01-06T02:45:40.462Z,99.96
2018-01-06T02:46:40.437Z,99.77
2018-01-06T02:47:40.414Z,99.30
2018-01-06T02:48:40.398Z,99.99
2018-01-06T02:49:40.377Z,99.58
2018-01-06T02:50:40.362Z,99.58
2018-01-06T02:51:40.345Z,99.30
2018-01-06T02:52:40.312Z,99.96
2018-01-06T02:53:40.292Z,99.58
2018-01-06T02:54:40.271Z,99.58
2018-01-06T02:55:40.251Z,99.58
2018-01-06T02:56:40.231Z,99.96
2018-01-06T02:57:40.212Z,99.96
2018-01-06T02:58:40.191Z,99.99
2018-01-06T02:59:40.167Z,99.99
2018-01-06T03:00:40.151Z,99.99
2018-01-06T03:01:40.130Z,99.99
2018-01-06T03:02:40.112Z,99.77
2018-01-06T03:03:40.089Z,99.77
2018-01-06T03:04:40.071Z,99.87
2018-01-06T03:05:40.046Z,99.68
2018-01-06T03:06:40.026Z,99.58
2018-01-06T03:07:40.008Z,99.77
2018-01-06T03:08:39.986Z,99.96
2018-01-06T03:09:39.969Z,99.68
2018-01-06T03:10:39.945Z,99.77
2018-01-06T03:11:39.932Z,99.58
2018-01-06T03:12:39.908Z,99.01
2018-01-06T03:13:39.882Z,99.58
2018-01-06T03:14:39.866Z,99.91
2018-01-06T03:15:39.850Z,99.72
2018-01-06T03:16:39.820Z,99.99
2018-01-06T03:17:39.802Z,99.53
2018-01-06T03:18:39.785Z,99.53
2018-01-06T03:19:39.770Z,99.99
2018-01-06T03:20:39.741Z,99.99
2018-01-06T03:21:39.721Z,99.99
2018-01-06T03:22:39.701Z,99.99
2018-01-06T03:23:39.681Z,99.99
2018-01-06T03:24:39.662Z,99.99
2018-01-06T03:25:39.641Z,99.99
2018-01-06T03:26:39.625Z,99.99
2018-01-06T03:27:39.598Z,99.99
2018-01-06T03:28:39.576Z,99.99
2018-01-06T03:29:39.557Z,99.99
2018-01-06T03:30:39.537Z,99.99
2018-01-06T03:31:39.513Z,99.77
2018-01-06T03:32:39.495Z,99.99
2018-01-06T03:33:39.479Z,99.96
2018-01-06T03:34:39.453Z,99.87
2018-01-06T03:35:39.432Z,99.87
2018-01-06T03:36:39.410Z,99.72
2018-01-06T03:37:39.394Z,99.72
2018-01-06T03:38:39.371Z,99.72
2018-01-06T03:39:39.351Z,99.77
2018-01-06T03:40:39.334Z,99.68
2018-01-06T03:41:39.311Z,99.44
2018-01-06T03:42:39.292Z,99.77
2018-01-06T03:43:39.275Z,99.99
2018-01-06T03:44:39.248Z,99.91
2018-01-06T03:45:39.232Z,99.53
2018-01-06T03:46:39.210Z,99.53
2018-01-06T03:47:39.188Z,99.99
2018-01-06T03:48:39.169Z,99.99
2018-01-06T03:49:39.147Z,99.53
2018-01-06T03:50:39.128Z,99.53
2018-01-06T03:51:39.105Z,99.99
2018-01-06T03:52:39.085Z,99.99
2018-01-06T03:53:39.066Z,99.91
2018-01-06T03:54:39.046Z,99.44
2018-01-06T03:55:39.024Z,99.72
2018-01-06T03:56:39.000Z,99.82
2018-01-06T03:57:38.981Z,99.34
2018-01-06T03:58:38.960Z,99.82
2018-01-06T03:59:38.938Z,99.72
2018-01-06T04:00:38.920Z,99.91
2018-01-06T04:01:38.899Z,99.53
2018-01-06T04:02:38.880Z,99.25
2018-01-06T04:03:38.861Z,99.72
2018-01-06T04:04:38.846Z,99.91
2018-01-06T04:05:38.823Z,99.99
2018-01-06T04:06:38.795Z,99.25
2018-01-06T04:07:38.780Z,99.82
2018-01-06T04:08:38.756Z,99.99
2018-01-06T04:09:38.740Z,99.99
2018-01-06T04:10:38.720Z,99.53
2018-01-06T04:11:38.697Z,99.72
2018-01-06T04:12:38.674Z,99.82
2018-01-06T04:13:38.652Z,99.99
2018-01-06T04:14:38.637Z,99.72
2018-01-06T04:15:38.614Z,99.82
2018-01-06T04:16:38.591Z,99.63
2018-01-06T04:17:38.577Z,99.53
2018-01-06T04:18:38.562Z,99.99
2018-01-06T04:19:38.530Z,99.99
2018-01-06T04:20:38.510Z,99.99
2018-01-06T04:21:38.489Z,99.99
2018-01-06T04:22:38.472Z,99.91
2018-01-06T04:23:38.450Z,99.99
2018-01-06T04:24:38.431Z,99.99
2018-01-06T04:25:38.408Z,99.99
2018-01-06T04:26:38.388Z,99.99
2018-01-06T04:27:38.366Z,99.99
2018-01-06T04:28:38.344Z,99.99
2018-01-06T04:29:38.326Z,99.99
2018-01-06T04:30:38.310Z,99.82
2018-01-06T04:31:38.289Z,99.72
2018-01-06T04:32:38.265Z,99.99
2018-01-06T04:33:38.249Z,99.99
2018-01-06T04:34:38.224Z,99.99
2018-01-06T04:35:38.210Z,99.99
2018-01-06T04:36:38.180Z,99.91
2018-01-06T04:37:38.163Z,99.63
2018-01-06T04:38:38.141Z,99.99
2018-01-06T04:39:38.120Z,99.99
2018-01-06T04:40:38.096Z,99.63
2018-01-06T04:41:38.083Z,99.99
2018-01-06T04:42:38.059Z,99.99
2018-01-06T04:43:38.035Z,99.99
2018-01-06T04:44:38.017Z,99.99
2018-01-06T04:45:37.995Z,99.99
2018-01-06T04:46:37.977Z,99.99
2018-01-06T04:47:37.955Z,99.99
2018-01-06T04:48:37.932Z,99.99
2018-01-06T04:49:37.912Z,99.99
2018-01-06T04:50:37.893Z,99.99
2018-01-06T04:51:37.873Z,99.99
2018-01-06T04:52:37.852Z,99.99
2018-01-06T04:53:37.830Z,99.99
2018-01-06T04:54:37.811Z,99.99
2018-01-06T04:55:37.789Z,99.99
2018-01-06T04:56:37.771Z,99.99
2018-01-06T04:57:37.749Z,99.99
2018-01-06T04:58:37.735Z,99.99
2018-01-06T04:59:37.709Z,99.99
2018-01-06T05:00:37.686Z,99.99
2018-01-06T05:01:37.670Z,99.99
2018-01-06T05:02:37.645Z,99.99
2018-01-06T05:03:37.626Z,99.99
2018-01-06T05:04:37.615Z,99.99
2018-01-06T05:05:37.594Z,99.99
2018-01-06T05:06:37.568Z,99.99
2018-01-06T05:07:37.541Z,99.99
2018-01-06T05:08:37.519Z,99.99
2018-01-06T05:09:37.504Z,99.99
2018-01-06T05:10:37.500Z,99.99
2018-01-06T05:11:37.461Z,99.99
2018-01-06T05:12:37.439Z,99.99
2018-01-06T05:13:37.420Z,99.99
2018-01-06T05:14:37.398Z,99.99
2018-01-06T05:15:37.375Z,99.99
2018-01-06T05:16:37.358Z,99.99
2018-01-06T05:17:37.337Z,99.99
2018-01-06T05:18:37.317Z,99.99
2018-01-06T05:19:37.296Z,99.99
2018-01-06T05:20:37.276Z,99.99
2018-01-06T05:21:37.255Z,99.99
2018-01-06T05:22:37.254Z,99.99
2018-01-06T05:23:37.218Z,99.99
2018-01-06T05:24:37.194Z,99.99
2018-01-06T05:25:37.173Z,99.99
2018-01-06T05:26:37.150Z,99.99
2018-01-06T05:27:37.131Z,99.99
2018-01-06T05:28:37.109Z,99.99
2018-01-06T05:29:37.090Z,99.99
2018-01-06T05:30:37.071Z,99.99
2018-01-06T05:31:37.047Z,99.99
2018-01-06T05:32:37.079Z,99.99
2018-01-06T05:33:37.006Z,99.99
2018-01-06T05:34:36.989Z,99.99
2018-01-06T05:35:36.965Z,99.53
2018-01-06T05:36:36.953Z,99.68
2018-01-06T05:37:36.925Z,99.96
2018-01-06T05:38:36.905Z,99.87
2018-01-06T05:39:36.887Z,99.77
2018-01-06T05:40:36.864Z,99.58
2018-01-06T05:41:36.849Z,99.99
2018-01-06T05:42:36.822Z,99.96
2018-01-06T05:43:36.802Z,99.77
2018-01-06T05:44:36.782Z,99.39
2018-01-06T05:45:36.767Z,99.96
2018-01-06T05:46:36.739Z,99.77
2018-01-06T05:47:36.719Z,99.58
2018-01-06T05:48:36.701Z,99.68
2018-01-06T05:49:36.679Z,99.96
2018-01-06T05:50:36.658Z,99.96
2018-01-06T05:51:36.640Z,99.39
2018-01-06T05:52:36.616Z,99.77
2018-01-06T05:53:36.599Z,99.68
2018-01-06T05:54:36.576Z,99.30
2018-01-06T05:55:36.557Z,99.20
2018-01-06T05:56:36.535Z,99.96
2018-01-06T05:57:36.514Z,99.96
2018-01-06T05:58:36.494Z,99.68
2018-01-06T05:59:36.470Z,99.96
2018-01-06T06:00:36.452Z,99.99
2018-01-06T06:01:36.429Z,99.68
2018-01-06T06:02:36.408Z,99.20
2018-01-06T06:03:36.387Z,99.30
2018-01-06T06:04:36.372Z,99.39
2018-01-06T06:05:36.353Z,99.30
2018-01-06T06:06:36.333Z,99.11
2018-01-06T06:07:36.310Z,99.20
2018-01-06T06:08:36.290Z,99.20
2018-01-06T06:09:36.264Z,99.30
2018-01-06T06:10:36.250Z,99.39
2018-01-06T06:11:36.225Z,99.20
2018-01-06T06:12:36.203Z,98.82
2018-01-06T06:13:36.191Z,98.92
2018-01-06T06:14:36.160Z,99.30
2018-01-06T06:15:36.140Z,99.39
2018-01-06T06:16:36.121Z,98.92
2018-01-06T06:17:36.101Z,98.63
2018-01-06T06:18:36.087Z,99.20
2018-01-06T06:19:36.064Z,98.73
2018-01-06T06:20:36.039Z,98.73
2018-01-06T06:21:36.020Z,99.01
2018-01-06T06:22:35.997Z,99.20
2018-01-06T06:23:35.973Z,99.01
2018-01-06T06:24:35.952Z,99.39
2018-01-06T06:25:35.934Z,99.77
2018-01-06T06:26:35.917Z,99.39
2018-01-06T06:27:35.895Z,99.39
2018-01-06T06:28:35.872Z,99.30
2018-01-06T06:29:35.853Z,98.44
2018-01-06T06:30:35.834Z,98.82
2018-01-06T06:31:35.829Z,98.73
2018-01-06T06:32:35.791Z,98.63
2018-01-06T06:33:35.768Z,98.73
2018-01-06T06:34:35.754Z,98.73
2018-01-06T06:35:35.737Z,99.01
2018-01-06T06:36:35.705Z,99.30
2018-01-06T06:37:35.689Z,99.11
2018-01-06T06:38:35.665Z,99.39
2018-01-06T06:39:35.648Z,98.92
2018-01-06T06:40:35.626Z,99.20
2018-01-06T06:41:35.611Z,99.11
2018-01-06T06:42:35.581Z,99.11
2018-01-06T06:43:35.560Z,99.49
2018-01-06T06:44:35.539Z,99.01
2018-01-06T06:45:35.521Z,98.82
2018-01-06T06:46:35.501Z,98.82
2018-01-06T06:47:35.482Z,99.39
2018-01-06T06:48:35.456Z,99.11
2018-01-06T06:49:35.442Z,99.77
2018-01-06T06:50:35.418Z,99.30
2018-01-06T06:51:35.395Z,99.58
2018-01-06T06:52:35.374Z,99.39
2018-01-06T06:53:35.355Z,99.20
2018-01-06T06:54:35.333Z,99.01
2018-01-06T06:55:35.317Z,98.73
2018-01-06T06:56:35.293Z,98.92
2018-01-06T06:57:35.276Z,98.92
2018-01-06T06:58:35.251Z,98.82
2018-01-06T06:59:35.232Z,99.30
2018-01-06T07:00:35.210Z,99.77
2018-01-06T07:01:35.188Z,99.49
2018-01-06T07:02:35.172Z,99.58
2018-01-06T07:03:35.150Z,99.68
2018-01-06T07:04:35.130Z,99.99
2018-01-06T07:05:35.107Z,99.39
2018-01-06T07:06:35.086Z,99.68
2018-01-06T07:07:35.070Z,99.39
2018-01-06T07:08:35.047Z,99.39
2018-01-06T07:09:35.031Z,99.39
2018-01-06T07:10:35.012Z,99.96
2018-01-06T07:11:34.993Z,99.96
2018-01-06T07:12:34.972Z,99.99
2018-01-06T07:13:34.943Z,99.20
2018-01-06T07:14:34.924Z,99.01
2018-01-06T07:15:34.907Z,99.39
2018-01-06T07:16:34.889Z,99.30
2018-01-06T07:17:34.864Z,99.39
2018-01-06T07:18:34.848Z,99.01
2018-01-06T07:19:34.822Z,98.63
2018-01-06T07:20:34.799Z,99.20
2018-01-06T07:21:34.780Z,99.58
2018-01-06T07:22:34.761Z,99.58
2018-01-06T07:23:34.740Z,99.20
2018-01-06T07:24:34.721Z,99.39
2018-01-06T07:25:34.698Z,98.92
2018-01-06T07:26:34.678Z,98.73
2018-01-06T07:27:34.657Z,99.11
2018-01-06T07:28:34.636Z,99.01
2018-01-06T07:29:34.622Z,99.30
2018-01-06T07:30:34.599Z,99.39
2018-01-06T07:31:34.580Z,99.58
2018-01-06T07:32:34.558Z,99.20
2018-01-06T07:33:34.532Z,99.20
2018-01-06T07:34:34.512Z,99.30
2018-01-06T07:35:34.491Z,98.82
2018-01-06T07:36:34.481Z,98.54
2018-01-06T07:37:34.460Z,98.82
2018-01-06T07:38:34.437Z,99.01
2018-01-06T07:39:34.411Z,98.16
2018-01-06T07:40:34.399Z,98.35
2018-01-06T07:41:34.381Z,98.07
2018-01-06T07:42:34.365Z,98.07
2018-01-06T07:43:34.333Z,98.35
2018-01-06T07:44:34.309Z,98.54
2018-01-06T07:45:34.293Z,98.07
2018-01-06T07:46:34.279Z,98.25
2018-01-06T07:47:34.254Z,98.16
2018-01-06T07:48:34.232Z,98.92
2018-01-06T07:49:34.211Z,99.01
2018-01-06T07:50:34.190Z,98.44
2018-01-06T07:51:34.166Z,98.73
2018-01-06T07:52:34.154Z,98.44
2018-01-06T07:53:34.128Z,99.01
2018-01-06T07:54:34.114Z,98.63
2018-01-06T07:55:34.092Z,98.82
2018-01-06T07:56:34.064Z,98.92
2018-01-06T07:57:34.048Z,98.73
2018-01-06T07:58:34.024Z,98.82
2018-01-06T07:59:34.019Z,98.82
2018-01-06T08:00:33.983Z,98.82
2018-01-06T08:01:33.964Z,98.82
2018-01-06T08:02:33.949Z,98.82
2018-01-06T08:03:33.921Z,98.63
2018-01-06T08:04:33.909Z,98.82
2018-01-06T08:05:33.883Z,98.73
2018-01-06T08:06:33.865Z,98.82
2018-01-06T08:07:33.841Z,98.63
2018-01-06T08:08:33.821Z,98.16
2018-01-06T08:09:33.800Z,98.16
2018-01-06T08:10:33.782Z,98.07
2018-01-06T08:11:33.760Z,98.63
2018-01-06T08:12:33.738Z,98.44
2018-01-06T08:13:33.724Z,98.44
2018-01-06T08:14:33.700Z,98.44
2018-01-06T08:15:33.676Z,98.82
2018-01-06T08:16:33.659Z,98.25
2018-01-06T08:17:33.645Z,98.92
2018-01-06T08:18:33.617Z,98.73
2018-01-06T08:19:33.594Z,98.82
2018-01-06T08:20:33.575Z,98.54
2018-01-06T08:21:33.556Z,98.25
2018-01-06T08:22:33.542Z,97.97
2018-01-06T08:23:33.517Z,98.16
2018-01-06T08:24:33.494Z,97.97
2018-01-06T08:25:33.473Z,98.73
2018-01-06T08:26:33.454Z,98.44
2018-01-06T08:27:33.482Z,98.44
2018-01-06T08:28:33.410Z,98.82
2018-01-06T08:29:33.391Z,98.82
2018-01-06T08:30:33.373Z,99.11
2018-01-06T08:31:33.355Z,99.11
2018-01-06T08:32:33.331Z,99.39
2018-01-06T08:33:33.311Z,99.30
2018-01-06T08:34:33.290Z,99.39
2018-01-06T08:35:33.273Z,99.20
2018-01-06T08:36:33.248Z,99.20
2018-01-06T08:37:33.229Z,99.39
2018-01-06T08:38:33.208Z,99.20
2018-01-06T08:39:33.190Z,99.39
2018-01-06T08:40:33.167Z,99.11
2018-01-06T08:41:33.151Z,98.63
2018-01-06T08:42:33.128Z,98.54
2018-01-06T08:43:33.109Z,98.82
2018-01-06T08:44:33.088Z,98.82
2018-01-06T08:45:33.064Z,98.92
2018-01-06T08:46:33.042Z,98.82
2018-01-06T08:47:33.027Z,98.82
2018-01-06T08:48:33.001Z,98.63
2018-01-06T08:49:32.982Z,98.73
2018-01-06T08:50:32.962Z,98.92
2018-01-06T08:51:32.939Z,98.82
2018-01-06T08:52:32.922Z,98.82
2018-01-06T08:53:32.899Z,98.63
2018-01-06T08:54:32.881Z,98.54
2018-01-06T08:55:32.860Z,98.63
2018-01-06T08:56:32.835Z,98.44
2018-01-06T08:57:32.820Z,98.44
2018-01-06T08:58:32.797Z,98.73
2018-01-06T08:59:32.788Z,98.82
2018-01-06T09:00:32.754Z,98.16
2018-01-06T09:01:32.743Z,98.73
2018-01-06T09:02:32.716Z,98.63
2018-01-06T09:03:32.692Z,98.92
2018-01-06T09:04:32.680Z,98.82
2018-01-06T09:05:32.656Z,98.82
2018-01-06T09:06:32.631Z,99.01
2018-01-06T09:07:32.608Z,98.07
2018-01-06T09:08:32.590Z,98.73
2018-01-06T09:09:32.574Z,98.82
2018-01-06T09:10:32.551Z,98.73
2018-01-06T09:11:32.537Z,98.54
2018-01-06T09:12:32.512Z,98.82
2018-01-06T09:13:32.487Z,99.01
2018-01-06T09:14:32.481Z,98.92
2018-01-06T09:15:32.448Z,98.44
2018-01-06T09:16:32.431Z,98.92
2018-01-06T09:17:32.409Z,98.73
2018-01-06T09:18:32.390Z,98.25
2018-01-06T09:19:32.367Z,98.16
2018-01-06T09:20:32.373Z,97.97
2018-01-06T09:21:32.325Z,98.25
2018-01-06T09:22:32.305Z,98.44
2018-01-06T09:23:32.286Z,98.44
2018-01-06T09:24:32.500Z,98.44
2018-01-06T09:25:32.981Z,98.35
2018-01-06T09:26:32.264Z,97.97
2018-01-06T09:27:32.215Z,98.63
2018-01-06T09:28:32.188Z,98.16
2018-01-06T09:29:32.178Z,98.16
2018-01-06T09:30:32.140Z,98.44
2018-01-06T09:31:32.120Z,98.07
2018-01-06T09:32:32.103Z,97.69
2018-01-06T09:33:32.080Z,97.40
2018-01-06T09:34:32.061Z,98.35
2018-01-06T09:35:32.044Z,98.07
2018-01-06T09:36:32.020Z,98.07
2018-01-06T09:37:32.002Z,98.07
2018-01-06T09:38:31.980Z,98.44
2018-01-06T09:39:31.962Z,98.07
2018-01-06T09:40:31.941Z,98.07
2018-01-06T09:41:31.918Z,97.59
2018-01-06T09:42:31.901Z,97.40
2018-01-06T09:43:32.091Z,97.97
2018-01-06T09:44:31.890Z,97.40
2018-01-06T09:45:32.167Z,97.50
2018-01-06T09:46:31.824Z,97.59
2018-01-06T09:47:31.797Z,97.59
2018-01-06T09:48:31.774Z,97.59
2018-01-06T09:49:31.761Z,97.40
2018-01-06T09:50:31.736Z,98.07
2018-01-06T09:51:31.720Z,97.69
2018-01-06T09:52:31.691Z,97.02
2018-01-06T09:53:31.674Z,96.73
2018-01-06T09:54:31.651Z,97.07
2018-01-06T09:55:31.633Z,96.83
2018-01-06T09:56:31.611Z,96.64
2018-01-06T09:57:31.594Z,97.31
2018-01-06T09:58:31.574Z,97.02
2018-01-06T09:59:31.553Z,97.83
2018-01-06T10:00:31.538Z,97.59
2018-01-06T10:01:31.509Z,97.69
2018-01-06T10:02:31.491Z,97.26
2018-01-06T10:03:31.470Z,96.92
2018-01-06T10:04:31.447Z,96.50
2018-01-06T10:05:31.429Z,96.22
2018-01-06T10:06:31.410Z,96.50
2018-01-06T10:07:31.384Z,96.59
2018-01-06T10:08:31.366Z,97.59
2018-01-06T10:09:31.346Z,97.36
2018-01-06T10:10:31.326Z,97.02
2018-01-06T10:11:31.306Z,97.07
2018-01-06T10:12:31.291Z,96.97
2018-01-06T10:13:31.265Z,96.78
2018-01-06T10:14:31.248Z,96.88
2018-01-06T10:15:31.229Z,96.41
2018-01-06T10:16:31.205Z,96.69
2018-01-06T10:17:31.190Z,96.78
2018-01-06T10:18:31.165Z,97.07
2018-01-06T10:19:31.143Z,96.88
2018-01-06T10:20:31.121Z,97.17
2018-01-06T10:21:31.101Z,96.59
2018-01-06T10:22:31.084Z,96.22
2018-01-06T10:23:31.076Z,95.74
2018-01-06T10:24:31.041Z,96.78
2018-01-06T10:25:31.028Z,96.22
2018-01-06T10:26:31.006Z,96.88
2018-01-06T10:27:30.984Z,97.36
2018-01-06T10:28:30.961Z,96.59
2018-01-06T10:29:30.945Z,96.50
2018-01-06T10:30:30.927Z,96.50
2018-01-06T10:31:30.908Z,96.22
2018-01-06T10:32:30.879Z,96.31
2018-01-06T10:33:30.864Z,96.03
2018-01-06T10:34:30.844Z,95.84
2018-01-06T10:35:30.828Z,95.65
2018-01-06T10:36:30.798Z,96.12
2018-01-06T10:37:30.783Z,95.65
2018-01-06T10:38:30.760Z,96.41
2018-01-06T10:39:30.734Z,95.27
2018-01-06T10:40:30.720Z,95.55
2018-01-06T10:41:30.712Z,94.98
2018-01-06T10:42:30.691Z,95.55
2018-01-06T10:43:30.656Z,95.55
2018-01-06T10:44:30.642Z,95.17
2018-01-06T10:45:30.618Z,95.65
2018-01-06T10:46:30.601Z,95.74
2018-01-06T10:47:30.578Z,95.74
2018-01-06T10:48:30.558Z,95.55
2018-01-06T10:49:30.541Z,95.74
2018-01-06T10:50:30.519Z,96.03
2018-01-06T10:51:30.498Z,96.03
2018-01-06T10:52:30.474Z,95.93
2018-01-06T10:53:30.459Z,96.69
2018-01-06T10:54:30.434Z,96.03
2018-01-06T10:55:30.419Z,95.65
2018-01-06T10:56:30.399Z,95.46
2018-01-06T10:57:30.381Z,95.27
2018-01-06T10:58:30.352Z,95.31
2018-01-06T10:59:30.332Z,95.36
2018-01-06T11:00:30.318Z,95.46
2018-01-06T11:01:30.300Z,95.84
2018-01-06T11:02:30.272Z,95.46
2018-01-06T11:03:30.260Z,95.55
2018-01-06T11:04:30.236Z,94.89
2018-01-06T11:05:30.212Z,95.12
2018-01-06T11:06:30.197Z,95.70
2018-01-06T11:07:30.182Z,94.93
2018-01-06T11:08:30.152Z,95.31
2018-01-06T11:09:30.162Z,95.03
2018-01-06T11:10:30.142Z,95.22
2018-01-06T11:11:30.093Z,95.22
2018-01-06T11:12:30.071Z,95.03
2018-01-06T11:13:30.659Z,95.22
2018-01-06T11:14:30.036Z,95.22
2018-01-06T11:15:30.016Z,95.22
2018-01-06T11:16:29.995Z,94.93
2018-01-06T11:17:29.981Z,95.12
2018-01-06T11:18:29.962Z,95.79
2018-01-06T11:19:29.930Z,96.26
2018-01-06T11:20:29.915Z,95.41
2018-01-06T11:21:29.898Z,95.70
2018-01-06T11:22:29.872Z,95.41
2018-01-06T11:23:29.858Z,95.70
2018-01-06T11:24:29.831Z,95.60
2018-01-06T11:25:29.810Z,95.60
2018-01-06T11:26:29.792Z,94.93
2018-01-06T11:27:29.770Z,95.41
2018-01-06T11:28:29.749Z,94.93
2018-01-06T11:29:29.732Z,95.22
2018-01-06T11:30:29.715Z,95.31
2018-01-06T11:31:29.692Z,95.22
2018-01-06T11:32:29.667Z,95.79
2018-01-06T11:33:29.647Z,95.03
2018-01-06T11:34:29.629Z,95.51
2018-01-06T11:35:29.613Z,95.51
2018-01-06T11:36:29.587Z,94.93
2018-01-06T11:37:29.569Z,94.93
2018-01-06T11:38:29.556Z,95.12
2018-01-06T11:39:29.571Z,94.84
2018-01-06T11:40:29.508Z,94.65
2018-01-06T11:41:29.499Z,94.74
2018-01-06T11:42:29.470Z,95.12
2018-01-06T11:43:29.464Z,95.12
2018-01-06T11:44:29.428Z,95.03
2018-01-06T11:45:29.410Z,95.31
2018-01-06T11:46:29.396Z,95.31
2018-01-06T11:47:29.366Z,95.22
2018-01-06T11:48:29.349Z,95.22
2018-01-06T11:49:29.332Z,94.93
2018-01-06T11:50:29.310Z,94.84
2018-01-06T11:51:29.287Z,94.37
2018-01-06T11:52:29.276Z,94.65
2018-01-06T11:53:29.245Z,95.22
2018-01-06T11:54:29.233Z,95.22
2018-01-06T11:55:29.205Z,94.93
2018-01-06T11:56:29.191Z,94.56
2018-01-06T11:57:29.171Z,94.56
2018-01-06T11:58:29.152Z,94.74
2018-01-06T11:59:29.131Z,94.84
2018-01-06T12:00:29.115Z,94.84
2018-01-06T12:01:29.090Z,94.37
2018-01-06T12:02:29.075Z,93.70
2018-01-06T12:03:29.051Z,94.46
2018-01-06T12:04:29.031Z,93.51
2018-01-06T12:05:29.040Z,94.27
2018-01-06T12:06:28.990Z,94.08
2018-01-06T12:07:28.968Z,94.84
2018-01-06T12:08:28.952Z,95.12
2018-01-06T12:09:28.926Z,94.84
2018-01-06T12:10:28.917Z,95.03
2018-01-06T12:11:28.891Z,94.84
2018-01-06T12:12:28.870Z,95.22
2018-01-06T12:13:28.849Z,95.31
2018-01-06T12:14:28.835Z,95.60
2018-01-06T12:15:28.810Z,95.31
2018-01-06T12:16:28.793Z,95.70
2018-01-06T12:17:28.786Z,95.70
2018-01-06T12:18:28.753Z,95.31
2018-01-06T12:19:28.732Z,95.22
2018-01-06T12:20:28.715Z,95.12
2018-01-06T12:21:28.705Z,96.26
2018-01-06T12:22:28.686Z,96.36
2018-01-06T12:23:28.653Z,96.26
2018-01-06T12:24:28.633Z,96.26
2018-01-06T12:25:28.619Z,96.26
2018-01-06T12:26:28.603Z,96.93
2018-01-06T12:27:28.573Z,96.64
2018-01-06T12:28:28.553Z,95.98
2018-01-06T12:29:28.543Z,95.79
2018-01-06T12:30:28.518Z,95.79
2018-01-06T12:31:28.493Z,95.70
2018-01-06T12:32:28.475Z,96.26
2018-01-06T12:33:28.457Z,95.98
2018-01-06T12:34:28.439Z,96.55
2018-01-06T12:35:28.428Z,96.64
2018-01-06T12:36:28.404Z,96.64
2018-01-06T12:37:28.371Z,97.88
2018-01-06T12:38:28.444Z,97.50
2018-01-06T12:39:28.350Z,96.93
2018-01-06T12:40:28.361Z,96.93
2018-01-06T12:41:28.333Z,95.70
2018-01-06T12:42:28.277Z,95.31
2018-01-06T12:43:28.273Z,95.98
2018-01-06T12:44:28.231Z,96.08
2018-01-06T12:45:28.214Z,96.26
2018-01-06T12:46:28.206Z,96.45
2018-01-06T12:47:28.171Z,96.93
2018-01-06T12:48:28.164Z,96.08
2018-01-06T12:49:28.131Z,96.74
2018-01-06T12:50:28.139Z,96.45
2018-01-06T12:51:28.105Z,97.02
2018-01-06T12:52:28.078Z,96.83